Time;durP1;ratioP1;P1;durP2;ratioP2;P2;SDS_P1;SDS_P2;PMS_P1;PMS_P2;Temp;Humidity;BMP_temperature;BMP_pressure;BME280_temperature;BME280_humidity;BME280_pressure;Samples;Min_cycle;Max_cycle;Signal;HPM_P1;HPM_P2
2022/08/12 00:44:14;;;;;;;1999.90;999.90;;;;;;;13.92;100.00;100305.09;5054674;28;20056;-53
2022/08/12 00:47:00;;;;;;;1999.90;999.90;;;;;;;13.86;100.00;100307.91;5053030;28;20055;-53
2022/08/12 00:49:48;;;;;;;1999.90;999.90;;;;;;;14.00;100.00;100304.84;5053798;28;20102;-52
2022/08/12 00:52:34;;;;;;;1999.90;999.90;;;;;;;13.86;100.00;100299.16;5054079;28;20439;-51
2022/08/12 00:55:20;;;;;;;1999.90;999.90;;;;;;;13.87;100.00;100303.50;5052115;28;20083;-52
2022/08/12 00:58:05;;;;;;;1999.90;999.90;;;;;;;13.93;100.00;100325.25;5053779;28;20507;-53
2022/08/12 01:00:50;;;;;;;1999.90;999.90;;;;;;;13.79;100.00;100312.50;5052550;28;20079;-51
2022/08/12 01:12:51;;;;;;;1999.90;999.90;;;;;;;13.53;100.00;100334.34;5055365;28;20076;-52
2022/08/12 01:15:37;;;;;;;1999.90;999.90;;;;;;;13.34;100.00;100330.50;5052602;28;20473;-53
2022/08/12 01:18:25;;;;;;;1999.90;999.90;;;;;;;13.55;100.00;100329.00;5054285;28;20063;-53
2022/08/12 01:21:41;;;;;;;1999.90;999.90;;;;;;;13.59;100.00;100325.41;5052191;28;20055;-53
2022/08/12 01:24:45;;;;;;;1999.90;999.90;;;;;;;13.53;100.00;100328.22;5053440;28;20051;-52
2022/08/12 01:27:33;;;;;;;1999.90;999.90;;;;;;;13.54;100.00;100324.66;5052681;28;20056;-52
2022/08/12 01:30:19;;;;;;;1999.90;999.90;;;;;;;13.60;100.00;100327.13;5051196;28;20103;-52
2022/08/12 01:33:05;;;;;;;1999.90;999.90;;;;;;;13.48;100.00;100328.31;5050603;28;20186;-51
2022/08/12 01:35:59;;;;;;;1999.90;999.90;;;;;;;13.53;100.00;100329.06;5051421;28;20079;-50
2022/08/12 01:38:46;;;;;;;1999.90;999.90;;;;;;;13.49;100.00;100331.84;5053369;28;20055;-52
2022/08/12 01:41:34;;;;;;;1999.90;999.90;;;;;;;13.49;100.00;100330.06;5052263;28;20161;-53
2022/08/12 01:44:20;;;;;;;1999.90;999.90;;;;;;;13.54;100.00;100330.78;5053039;28;20051;-53
2022/08/12 01:47:14;;;;;;;1999.90;999.90;;;;;;;13.34;100.00;100330.50;5050546;28;20099;-53
2022/08/12 01:50:15;;;;;;;1999.90;999.90;;;;;;;13.44;100.00;100329.34;5053072;28;20055;-53
2022/08/12 01:53:09;;;;;;;1999.90;999.90;;;;;;;13.38;100.00;100326.88;5052997;28;20514;-52
2022/08/12 01:55:55;;;;;;;1999.90;999.90;;;;;;;13.55;100.00;100319.38;5050873;28;20098;-52
2022/08/12 02:01:52;;;;;;;1999.90;999.90;;;;;;;13.62;100.00;100316.56;5051091;28;20046;-52
2022/08/12 02:11:28;;;;;;;1999.90;999.90;;;;;;;13.77;100.00;100322.22;5050940;28;20041;-51
2022/08/12 02:14:30;;;;;;;1999.90;999.90;;;;;;;13.83;100.00;100323.81;5054862;28;20087;-53
2022/08/12 02:17:21;;;;;;;1999.90;999.90;;;;;;;13.84;100.00;100324.66;5052210;28;20175;-53
2022/08/12 02:20:24;;;;;;;1999.90;999.90;;;;;;;13.88;100.00;100321.06;5056095;28;20056;-53
2022/08/12 02:23:11;;;;;;;1999.90;999.90;;;;;;;13.87;100.00;100319.31;5056252;28;20091;-53
2022/08/12 02:26:05;;;;;;;1999.90;999.90;;;;;;;13.97;100.00;100320.75;5053218;28;20128;-54
2022/08/12 02:28:51;;;;;;;1999.90;999.90;;;;;;;13.90;100.00;100325.34;5051853;28;20399;-53
2022/08/12 02:31:37;;;;;;;1999.90;999.90;;;;;;;13.99;100.00;100324.19;5052705;28;20044;-53
2022/08/12 02:34:23;;;;;;;1999.90;999.90;;;;;;;14.03;100.00;100318.78;5057820;28;20060;-53
2022/08/12 02:37:09;;;;;;;1999.90;999.90;;;;;;;14.17;100.00;100315.75;5055483;28;20439;-53
2022/08/12 02:39:57;;;;;;;1999.90;999.90;;;;;;;14.34;100.00;100315.19;5059472;28;20115;-53
2022/08/12 02:42:56;;;;;;;1999.90;999.90;;;;;;;14.39;100.00;100301.84;5057878;28;20040;-52
2022/08/12 02:45:46;;;;;;;1999.90;999.90;;;;;;;14.45;100.00;100307.78;5058731;28;20552;-52
2022/08/12 02:48:38;;;;;;;1999.90;999.90;;;;;;;14.51;100.00;100308.53;5058328;28;20051;-53
2022/08/12 02:51:37;;;;;;;1999.90;999.90;;;;;;;14.59;100.00;100314.41;5057942;28;20087;-53
2022/08/12 02:54:23;;;;;;;1999.90;999.90;;;;;;;14.57;100.00;100310.97;5056904;28;20056;-53
2022/08/12 02:57:12;;;;;;;1999.90;999.90;;;;;;;14.63;100.00;100294.94;5055098;28;20470;-54
2022/08/12 02:59:57;;;;;;;1999.90;999.90;;;;;;;14.80;100.00;100304.91;5056759;28;20114;-53
2022/08/12 03:02:44;;;;;;;1999.90;999.90;;;;;;;14.75;100.00;100302.41;5056482;28;20057;-53
2022/08/12 03:05:32;;;;;;;1999.90;999.90;;;;;;;14.84;100.00;100303.88;5055498;28;20067;-52
2022/08/12 03:08:19;;;;;;;1999.90;999.90;;;;;;;14.81;100.00;100306.63;5056343;28;20055;-51
2022/08/12 03:11:24;;;;;;;1999.90;999.90;;;;;;;14.83;100.00;100302.16;5055882;28;20079;-53
2022/08/12 03:14:14;;;;;;;1999.90;999.90;;;;;;;14.85;100.00;100301.22;5054853;28;20079;-52
2022/08/12 03:17:44;;;;;;;1999.90;999.90;;;;;;;14.91;100.00;100295.69;5055467;28;20109;-52
2022/08/12 03:20:36;;;;;;;1999.90;999.90;;;;;;;14.86;100.00;100297.66;5058260;28;20100;-52
2022/08/12 03:23:22;;;;;;;1999.90;999.90;;;;;;;14.99;100.00;100298.09;5057319;28;20049;-52
2022/08/12 03:26:07;;;;;;;1999.90;999.90;;;;;;;14.99;100.00;100298.09;5058107;28;20076;-53
2022/08/12 03:28:55;;;;;;;1999.90;999.90;;;;;;;15.04;100.00;100295.25;5055504;28;20054;-54
2022/08/12 03:31:39;;;;;;;1999.90;999.90;;;;;;;15.06;100.00;100298.72;5053372;28;20079;-50
2022/08/12 03:34:28;;;;;;;1999.90;999.90;;;;;;;15.16;100.00;100303.59;5057528;28;20045;-53
2022/08/12 03:37:14;;;;;;;1999.90;999.90;;;;;;;15.13;100.00;100294.94;5056436;28;20049;-51
2022/08/12 03:39:58;;;;;;;1999.90;999.90;;;;;;;15.21;100.00;100306.09;5054243;28;20059;-51
2022/08/12 04:01:14;;;;;;;1999.90;999.90;;;;;;;15.33;100.00;100317.97;5053137;28;20059;-52
2022/08/12 04:04:00;;;;;;;1999.90;999.90;;;;;;;15.50;100.00;100312.06;5054206;28;20047;-53
2022/08/12 04:06:45;;;;;;;1999.90;999.90;;;;;;;15.49;100.00;100310.34;5053014;28;20041;-53
2022/08/12 04:09:30;;;;;;;1999.90;999.90;;;;;;;15.59;100.00;100306.44;5053271;28;20082;-52
2022/08/12 04:15:19;;;;;;;1999.90;999.90;;;;;;;15.87;100.00;100317.69;5052586;28;20429;-53
2022/08/12 04:18:04;;;;;;;1999.90;999.90;;;;;;;15.97;100.00;100312.06;5052332;28;20431;-52
2022/08/12 04:20:49;;;;;;;1999.90;999.90;;;;;;;15.85;100.00;100311.59;5051373;28;20045;-52
2022/08/12 04:23:34;;;;;;;1999.90;999.90;;;;;;;15.98;100.00;100306.69;5053625;28;20053;-52
2022/08/12 04:26:18;;;;;;;1999.90;999.90;;;;;;;16.08;100.00;100309.84;5052944;28;20056;-53
2022/08/12 04:29:03;;;;;;;1999.90;999.90;;;;;;;16.06;100.00;100303.78;5053364;28;20067;-52
2022/08/12 04:31:48;;;;;;;1999.90;999.90;;;;;;;16.32;100.00;100303.59;5055112;28;20048;-51
2022/08/12 04:34:33;;;;;;;1999.90;999.90;;;;;;;16.45;100.00;100303.09;5051080;28;20106;-52
2022/08/12 04:37:18;;;;;;;1999.90;999.90;;;;;;;16.53;100.00;100301.81;5053864;28;20125;-51
2022/08/12 04:40:03;;;;;;;1999.90;999.90;;;;;;;16.80;100.00;100302.50;5054131;28;20079;-53
2022/08/12 04:42:47;;;;;;;1999.90;999.90;;;;;;;16.82;100.00;100303.25;5055170;28;20136;-52
2022/08/12 04:45:33;;;;;;;1999.90;999.90;;;;;;;17.28;100.00;100295.94;5055527;28;20051;-54
2022/08/12 04:48:18;;;;;;;1999.90;999.90;;;;;;;17.54;100.00;100288.59;5055215;28;20109;-52
2022/08/12 04:51:03;;;;;;;1999.90;999.90;;;;;;;18.00;100.00;100286.47;5055274;28;20110;-52
2022/08/12 04:53:49;;;;;;;1999.90;999.90;;;;;;;17.96;100.00;100284.91;5053495;28;20052;-53
2022/08/12 04:56:34;;;;;;;1999.90;999.90;;;;;;;18.34;100.00;100287.50;5064839;28;20094;-53
2022/08/12 04:59:18;;;;;;;1999.90;999.90;;;;;;;18.71;100.00;100289.13;5051250;28;20590;-52
2022/08/12 05:02:03;;;;;;;1999.90;999.90;;;;;;;18.27;100.00;100288.72;5051748;28;20052;-51
2022/08/12 05:04:50;;;;;;;1999.90;999.90;;;;;;;18.30;100.00;100291.22;5050362;28;20076;-54
2022/08/12 05:07:35;;;;;;;1999.90;999.90;;;;;;;18.31;100.00;100291.13;5050577;28;20443;-54
2022/08/12 05:10:21;;;;;;;1999.90;999.90;;;;;;;18.58;100.00;100282.72;5050228;28;20633;-53
2022/08/12 05:13:11;;;;;;;1999.90;999.90;;;;;;;18.64;100.00;100271.81;5055030;28;20029;-54
2022/08/12 05:15:56;;;;;;;1999.90;999.90;;;;;;;19.03;100.00;100276.03;5048782;28;20040;-54
2022/08/12 05:18:41;;;;;;;1999.90;999.90;;;;;;;18.89;100.00;100288.22;5052092;28;20060;-53
2022/08/12 05:21:26;;;;;;;1999.90;999.90;;;;;;;18.82;100.00;100289.50;5049350;28;20509;-53
2022/08/12 05:24:10;;;;;;;1999.90;999.90;;;;;;;19.20;100.00;100285.75;5049149;28;20484;-55
2022/08/12 05:26:55;;;;;;;1999.90;999.90;;;;;;;19.23;100.00;100285.59;5049786;28;20074;-54
2022/08/12 05:29:41;;;;;;;1999.90;999.90;;;;;;;19.42;100.00;100282.81;5049941;28;20084;-54
2022/08/12 05:32:27;;;;;;;1999.90;999.90;;;;;;;19.55;100.00;100273.22;5049022;28;20076;-55
2022/08/12 05:35:14;;;;;;;1999.90;999.90;;;;;;;19.91;100.00;100272.16;5049436;28;20502;-54
2022/08/12 05:41:05;;;;;;;1999.90;999.90;;;;;;;20.45;100.00;100289.41;5051709;28;20044;-54
2022/08/12 05:43:51;;;;;;;1999.90;999.90;;;;;;;20.46;100.00;100287.59;5052159;28;20087;-53
2022/08/12 05:46:36;;;;;;;1999.90;999.90;;;;;;;20.51;100.00;100283.78;5052681;28;20549;-53
2022/08/12 05:49:20;;;;;;;1999.90;999.90;;;;;;;20.47;100.00;100292.84;5056352;28;20518;-52
2022/08/12 05:52:06;;;;;;;1999.90;999.90;;;;;;;20.65;100.00;100290.06;5056487;28;20059;-54
2022/08/12 05:54:51;;;;;;;1999.90;999.90;;;;;;;20.54;100.00;100296.03;5053831;28;20060;-55
2022/08/12 05:57:36;;;;;;;1999.90;999.90;;;;;;;20.91;100.00;100288.50;5054861;28;20436;-55
2022/08/12 06:00:24;;;;;;;1999.90;999.90;;;;;;;20.39;100.00;100295.09;5057265;28;20458;-54
2022/08/12 06:03:09;;;;;;;1999.90;999.90;;;;;;;21.00;100.00;100286.16;5056970;28;20056;-54
2022/08/12 06:05:55;;;;;;;1999.90;999.90;;;;;;;21.39;100.00;100283.84;5055360;28;20090;-54
2022/08/12 06:08:45;;;;;;;1999.90;999.90;;;;;;;21.44;100.00;100282.56;5063162;28;20079;-54
2022/08/12 06:11:29;;;;;;;1999.90;999.90;;;;;;;21.72;100.00;100278.16;5064819;28;20048;-53
2022/08/12 06:14:14;;;;;;;1999.90;999.90;;;;;;;21.96;100.00;100278.38;5061659;28;20107;-54
2022/08/12 06:16:59;;;;;;;1999.90;999.90;;;;;;;22.13;100.00;100283.50;5058955;28;20712;-55
2022/08/12 06:19:44;;;;;;;1999.90;999.90;;;;;;;23.04;100.00;100274.75;5063021;28;20048;-55
2022/08/12 06:22:28;;;;;;;1999.90;999.90;;;;;;;22.14;100.00;100277.19;5061600;28;20877;-54
2022/08/12 06:25:17;;;;;;;1999.90;999.90;;;;;;;22.46;100.00;100284.91;5058557;28;20041;-55
2022/08/12 06:28:02;;;;;;;1999.90;999.90;;;;;;;22.00;100.00;100274.59;5060092;28;20045;-55
2022/08/12 06:30:48;;;;;;;1999.90;999.90;;;;;;;22.11;100.00;100269.41;5055019;28;20099;-53
2022/08/12 06:33:34;;;;;;;1999.90;999.90;;;;;;;22.14;100.00;100271.88;5054195;28;20053;-54
2022/08/12 06:36:22;;;;;;;1999.90;999.90;;;;;;;22.15;100.00;100270.94;5047774;28;20538;-56
2022/08/12 06:39:06;;;;;;;1999.90;999.90;;;;;;;22.47;100.00;100261.75;5058159;28;20094;-54
2022/08/12 06:44:53;;;;;;;1999.90;999.90;;;;;;;23.22;100.00;100261.94;5048679;28;20040;-51
2022/08/12 06:47:39;;;;;;;1999.90;999.90;;;;;;;23.12;100.00;100260.88;5055062;28;20084;-54
2022/08/12 06:50:26;;;;;;;1999.90;999.90;;;;;;;23.17;100.00;100264.94;5055826;28;20434;-53
2022/08/12 06:53:11;;;;;;;1999.90;999.90;;;;;;;23.44;100.00;100261.28;5054265;28;20842;-55
2022/08/12 06:55:56;;;;;;;1999.90;999.90;;;;;;;23.41;100.00;100259.66;5050481;28;20488;-56
2022/08/12 06:58:41;;;;;;;1999.90;999.90;;;;;;;23.98;100.00;100260.91;5056546;28;20105;-55
2022/08/12 07:01:26;;;;;;;1999.90;999.90;;;;;;;24.43;100.00;100269.19;5054665;28;20059;-55
2022/08/12 07:04:11;;;;;;;1999.90;999.90;;;;;;;24.13;100.00;100266.97;5054118;28;20080;-56
2022/08/12 07:06:55;;;;;;;1999.90;999.90;;;;;;;24.33;100.00;100273.50;5058308;28;20048;-54
2022/08/12 07:09:42;;;;;;;1999.90;999.90;;;;;;;24.68;100.00;100274.41;5063478;28;20094;-54
2022/08/12 07:12:26;;;;;;;1999.90;999.90;;;;;;;24.36;100.00;100270.59;5061079;28;20647;-52
2022/08/12 07:15:12;;;;;;;1999.90;999.90;;;;;;;24.21;100.00;100265.44;5060965;28;20084;-54
2022/08/12 07:20:48;;;;;;;1999.90;999.90;;;;;;;24.16;100.00;100267.59;5060672;28;20075;-55
2022/08/12 07:23:37;;;;;;;1999.90;999.90;;;;;;;24.21;100.00;100261.88;5063029;28;20151;-54
2022/08/12 07:26:21;;;;;;;1999.90;999.90;;;;;;;24.46;100.00;100263.59;5059317;28;20065;-55
2022/08/12 07:29:08;;;;;;;1999.90;999.90;;;;;;;24.10;100.00;100269.88;5063130;28;20119;-54
2022/08/12 07:31:58;;;;;;;1999.90;999.90;;;;;;;24.77;100.00;100263.97;5058400;28;20068;-53
2022/08/12 07:34:43;;;;;;;1999.90;999.90;;;;;;;23.88;100.00;100265.25;5058196;28;20144;-54
2022/08/12 07:37:28;;;;;;;1999.90;999.90;;;;;;;25.17;100.00;100264.41;5060465;28;20057;-55
2022/08/12 07:40:14;;;;;;;1999.90;999.90;;;;;;;25.15;100.00;100260.97;5060374;28;20076;-54
2022/08/12 07:42:58;;;;;;;1999.90;999.90;;;;;;;25.61;100.00;100266.22;5057546;28;20087;-54
2022/08/12 07:45:44;;;;;;;1999.90;999.90;;;;;;;25.56;100.00;100256.84;5059144;28;20109;-54
2022/08/12 07:48:38;;;;;;;1999.90;999.90;;;;;;;25.91;99.15;100263.91;5056943;28;20118;-55
2022/08/12 07:51:23;;;;;;;1999.90;999.90;;;;;;;25.47;100.00;100255.75;5055235;28;20037;-56
2022/08/12 07:54:11;;;;;;;1999.90;999.90;;;;;;;25.60;100.00;100255.63;5053913;28;20059;-54
2022/08/12 07:56:56;;;;;;;1999.90;999.90;;;;;;;26.17;97.52;100257.22;5052463;28;20078;-54
2022/08/12 07:59:40;;;;;;;1999.90;999.90;;;;;;;26.41;95.78;100257.00;5054509;28;20037;-55
2022/08/12 08:02:25;;;;;;;1999.90;999.90;;;;;;;26.73;94.46;100261.50;5050557;28;20047;-56
2022/08/12 08:05:09;;;;;;;1999.90;999.90;;;;;;;27.25;90.01;100252.47;5050373;28;20127;-54
2022/08/12 08:08:00;;;;;;;1999.90;999.90;;;;;;;26.74;91.22;100249.75;5049620;28;20097;-54
2022/08/12 08:10:46;;;;;;;1999.90;999.90;;;;;;;26.66;90.05;100245.06;5054817;28;20056;-55
2022/08/12 08:13:33;;;;;;;1999.90;999.90;;;;;;;26.38;89.53;100251.88;5055318;28;20087;-56
2022/08/12 08:16:19;;;;;;;1999.90;999.90;;;;;;;26.45;88.07;100252.22;5057037;28;20083;-53
2022/08/12 08:19:04;;;;;;;1999.90;999.90;;;;;;;27.37;88.50;100250.56;5052674;28;20143;-54
2022/08/12 08:21:49;;;;;;;1999.90;999.90;;;;;;;27.47;86.69;100250.59;5054585;28;20051;-56
2022/08/12 08:24:33;;;;;;;1999.90;999.90;;;;;;;26.24;88.62;100250.34;5061867;28;20063;-54
2022/08/12 08:27:20;;;;;;;1999.90;999.90;;;;;;;26.55;88.73;100251.34;5056176;28;20060;-55
2022/08/12 08:30:05;;;;;;;1999.90;999.90;;;;;;;26.90;89.18;100257.34;5050748;28;20044;-55
2022/08/12 08:32:50;;;;;;;1999.90;999.90;;;;;;;26.71;90.70;100253.56;5051912;28;20552;-55
2022/08/12 08:35:41;;;;;;;1999.90;999.90;;;;;;;26.48;86.66;100243.94;5053149;28;20147;-54
2022/08/12 08:38:25;;;;;;;1999.90;999.90;;;;;;;27.08;84.51;100255.78;5052534;28;20079;-54
2022/08/12 08:44:13;;;;;;;1999.90;999.90;;;;;;;28.02;79.21;100255.56;5053982;28;20088;-55
2022/08/12 08:47:00;;;;;;;1999.90;999.90;;;;;;;27.87;79.70;100244.34;5057207;28;20159;-55
2022/08/12 08:49:44;;;;;;;1999.90;999.90;;;;;;;27.60;80.33;100244.97;5055323;28;20696;-55
2022/08/12 08:52:28;;;;;;;1999.90;999.90;;;;;;;27.18;81.50;100254.00;5058166;28;21103;-54
2022/08/12 08:55:15;;;;;;;1999.90;999.90;;;;;;;28.22;81.43;100259.13;5056752;28;20593;-55
2022/08/12 08:57:59;;;;;;;1999.90;999.90;;;;;;;26.78;83.11;100249.38;5052601;28;20427;-55
2022/08/12 09:00:46;;;;;;;1999.90;999.90;;;;;;;28.32;77.77;100247.34;5053444;28;20053;-53
2022/08/12 09:03:32;;;;;;;1999.90;999.90;;;;;;;27.49;80.27;100241.41;5050405;28;20052;-55
2022/08/12 09:06:19;;;;;;;1999.90;999.90;;;;;;;28.52;81.85;100253.63;5050671;28;20048;-55
2022/08/12 09:09:04;;;;;;;1999.90;999.90;;;;;;;27.95;81.54;100250.75;5053351;28;20136;-55
2022/08/12 09:14:53;;;;;;;1999.90;999.90;;;;;;;27.41;76.85;100246.59;5052075;28;20113;-56
2022/08/12 09:17:37;;;;;;;1999.90;999.90;;;;;;;28.55;77.58;100245.25;5052704;28;20498;-56
2022/08/12 09:20:24;;;;;;;1999.90;999.90;;;;;;;27.05;78.81;100239.91;5053458;28;20119;-55
2022/08/12 09:23:10;;;;;;;1999.90;999.90;;;;;;;27.96;77.09;100240.81;5053409;28;20399;-56
2022/08/12 09:25:55;;;;;;;1999.90;999.90;;;;;;;27.90;77.19;100231.47;5050906;28;20040;-56
2022/08/12 09:28:41;;;;;;;1999.90;999.90;;;;;;;28.67;73.14;100232.47;5052770;28;20045;-55
2022/08/12 09:31:26;;;;;;;1999.90;999.90;;;;;;;27.98;74.81;100228.06;5053989;28;20054;-56
2022/08/12 09:34:11;;;;;;;1999.90;999.90;;;;;;;26.74;81.15;100233.66;5051030;28;20852;-54
2022/08/12 09:36:56;;;;;;;1999.90;999.90;;;;;;;28.01;77.46;100235.00;5053614;28;20049;-55
2022/08/12 09:39:41;;;;;;;1999.90;999.90;;;;;;;28.94;73.88;100225.47;5056560;28;20082;-55
2022/08/12 09:45:30;;;;;;;1999.90;999.90;;;;;;;28.94;77.06;100217.38;5055423;28;20115;-55
2022/08/12 09:48:16;;;;;;;1999.90;999.90;;;;;;;29.22;78.18;100223.69;5053084;28;20116;-55
2022/08/12 09:51:00;;;;;;;1999.90;999.90;;;;;;;29.54;71.68;100225.91;5053550;28;20049;-55
2022/08/12 09:53:45;;;;;;;1999.90;999.90;;;;;;;28.77;70.64;100227.06;5057277;28;20119;-52
2022/08/12 09:56:33;;;;;;;1999.90;999.90;;;;;;;27.94;74.37;100224.81;5052549;28;20514;-55
2022/08/12 09:59:17;;;;;;;1999.90;999.90;;;;;;;28.58;72.52;100219.88;5056113;28;20182;-54
2022/08/12 10:02:03;;;;;;;1999.90;999.90;;;;;;;27.12;76.57;100216.88;5054376;28;20098;-54
2022/08/12 10:04:47;;;;;;;1999.90;999.90;;;;;;;27.86;76.67;100221.97;5053132;28;20163;-54
2022/08/12 10:07:32;;;;;;;1999.90;999.90;;;;;;;28.02;78.78;100220.59;5055732;28;20089;-54
2022/08/12 10:10:16;;;;;;;1999.90;999.90;;;;;;;27.08;78.23;100228.03;5053009;28;20048;-56
2022/08/12 10:16:04;;;;;;;1999.90;999.90;;;;;;;26.76;78.40;100207.50;5052462;28;20211;-54
2022/08/12 10:18:58;;;;;;;1999.90;999.90;;;;;;;27.41;71.27;100200.03;5053216;28;20056;-54
2022/08/12 10:21:43;;;;;;;1999.90;999.90;;;;;;;28.14;70.80;100198.78;5054087;28;20717;-53
2022/08/12 10:24:28;;;;;;;1999.90;999.90;;;;;;;26.91;75.82;100194.56;5054393;28;20103;-54
2022/08/12 10:30:18;;;;;;;1999.90;999.90;;;;;;;28.39;70.44;100205.41;5053985;28;20091;-56
2022/08/12 10:33:04;;;;;;;1999.90;999.90;;;;;;;28.46;75.46;100205.69;5056825;28;20052;-55
2022/08/12 10:35:49;;;;;;;1999.90;999.90;;;;;;;28.75;70.78;100196.72;5057867;28;20064;-53
2022/08/12 10:38:33;;;;;;;1999.90;999.90;;;;;;;28.04;73.42;100202.44;5062339;28;20060;-56
2022/08/12 10:44:22;;;;;;;1999.90;999.90;;;;;;;28.40;71.44;100200.88;5061733;28;20052;-54
2022/08/12 10:47:06;;;;;;;1999.90;999.90;;;;;;;28.64;68.65;100195.88;5059583;28;21431;-54
2022/08/12 10:49:51;;;;;;;1999.90;999.90;;;;;;;28.55;69.34;100179.75;5058730;28;20053;-55
2022/08/12 10:52:38;;;;;;;1999.90;999.90;;;;;;;29.46;70.22;100183.53;5059403;28;20514;-54
2022/08/12 10:55:22;;;;;;;1999.90;999.90;;;;;;;29.43;67.87;100186.50;5058489;28;20103;-54
2022/08/12 10:58:07;;;;;;;1999.90;999.90;;;;;;;27.88;72.54;100181.44;5057502;28;20484;-58
2022/08/12 11:00:51;;;;;;;1999.90;999.90;;;;;;;27.35;76.46;100176.38;5055748;28;20063;-58
2022/08/12 11:03:36;;;;;;;1999.90;999.90;;;;;;;26.85;79.07;100181.69;5055823;28;20048;-56
2022/08/12 11:06:22;;;;;;;1999.90;999.90;;;;;;;26.69;82.11;100183.00;5054512;28;20087;-55
2022/08/12 11:09:06;;;;;;;1999.90;999.90;;;;;;;27.69;75.93;100176.91;5057381;28;20048;-56
2022/08/12 11:11:52;;;;;;;1999.90;999.90;;;;;;;28.73;76.37;100169.06;5056894;28;20083;-58
2022/08/12 11:14:40;;;;;;;1999.90;999.90;;;;;;;27.94;72.89;100164.75;5055822;28;20061;-56
2022/08/12 11:17:25;;;;;;;1999.90;999.90;;;;;;;26.88;75.64;100163.47;5056982;28;20417;-54
2022/08/12 11:20:10;;;;;;;1999.90;999.90;;;;;;;26.93;77.47;100152.28;5054370;28;20087;-56
2022/08/12 11:22:56;;;;;;;1999.90;999.90;;;;;;;26.47;79.80;100162.50;5059226;28;20169;-55
2022/08/12 11:25:43;;;;;;;1999.90;999.90;;;;;;;25.79;80.23;100150.34;5055565;28;20076;-54
2022/08/12 11:28:28;;;;;;;1999.90;999.90;;;;;;;26.08;81.39;100146.13;5058515;28;20242;-56
2022/08/12 11:31:12;;;;;;;1999.90;999.90;;;;;;;27.26;77.10;100140.41;5056881;28;20044;-53
2022/08/12 11:33:57;;;;;;;1999.90;999.90;;;;;;;28.12;72.99;100141.50;5058294;28;20051;-52
2022/08/12 11:36:52;;;;;;;1999.90;999.90;;;;;;;27.59;70.81;100154.47;5058801;28;20102;-54
2022/08/12 11:39:36;;;;;;;1999.90;999.90;;;;;;;27.84;71.10;100153.13;5058385;28;20044;-54
2022/08/12 11:42:21;;;;;;;1999.90;999.90;;;;;;;28.38;68.90;100155.22;5061047;28;21786;-52
2022/08/12 11:45:06;;;;;;;1999.90;999.90;;;;;;;28.77;69.90;100151.63;5058615;28;20411;-56
2022/08/12 11:47:50;;;;;;;1999.90;999.90;;;;;;;28.37;71.69;100153.53;5058950;28;20052;-56
2022/08/12 11:50:34;;;;;;;1999.90;999.90;;;;;;;27.18;75.77;100156.38;5057936;28;20066;-57
2022/08/12 11:53:19;;;;;;;1999.90;999.90;;;;;;;26.81;76.32;100154.22;5057688;28;20052;-57
2022/08/12 11:56:05;;;;;;;1999.90;999.90;;;;;;;26.86;75.33;100160.03;5056510;28;20051;-56
2022/08/12 11:58:50;;;;;;;1999.90;999.90;;;;;;;27.16;75.67;100147.59;5055724;28;20062;-55
2022/08/12 12:01:34;;;;;;;1999.90;999.90;;;;;;;27.82;69.40;100153.28;5056897;28;20144;-55
2022/08/12 12:04:18;;;;;;;1999.90;999.90;;;;;;;27.82;69.95;100152.41;5056822;28;20059;-55
2022/08/12 12:07:03;;;;;;;1999.90;999.90;;;;;;;27.68;73.31;100151.81;5057369;28;20099;-55
2022/08/12 12:09:47;;;;;;;1999.90;999.90;;;;;;;27.69;66.58;100141.91;5055919;28;20557;-58
2022/08/12 12:12:32;;;;;;;1999.90;999.90;;;;;;;27.81;67.05;100145.34;5057155;28;20076;-58
2022/08/12 12:15:17;;;;;;;1999.90;999.90;;;;;;;28.43;65.59;100133.25;5055646;28;20400;-57
2022/08/12 12:18:02;;;;;;;1999.90;999.90;;;;;;;27.36;71.63;100135.06;5053524;28;21265;-59
2022/08/12 12:20:47;;;;;;;1999.90;999.90;;;;;;;27.96;72.59;100136.72;5054634;28;20049;-56
2022/08/12 12:23:36;;;;;;;1999.90;999.90;;;;;;;28.11;69.63;100142.53;5049460;28;20560;-56
2022/08/12 12:26:20;;;;;;;1999.90;999.90;;;;;;;27.38;71.09;100133.94;5062402;28;20149;-57
2022/08/12 12:29:04;;;;;;;1999.90;999.90;;;;;;;27.83;71.73;100136.16;5053327;28;20044;-57
2022/08/12 12:31:49;;;;;;;1999.90;999.90;;;;;;;27.18;71.01;100124.13;5052654;28;20075;-57
2022/08/12 12:34:34;;;;;;;1999.90;999.90;;;;;;;26.76;70.94;100129.59;5054161;28;20049;-54
2022/08/12 12:37:19;;;;;;;1999.90;999.90;;;;;;;26.42;76.31;100137.00;5054101;28;20091;-56
2022/08/12 12:40:04;;;;;;;1999.90;999.90;;;;;;;26.47;74.57;100124.06;5054073;28;20355;-55
2022/08/12 12:42:48;;;;;;;1999.90;999.90;;;;;;;26.38;74.60;100132.91;5052348;28;20104;-54
2022/08/12 12:45:35;;;;;;;1999.90;999.90;;;;;;;26.87;74.96;100136.72;5052910;28;20052;-57
2022/08/12 12:48:20;;;;;;;1999.90;999.90;;;;;;;26.79;74.49;100132.03;5053311;28;20044;-56
2022/08/12 12:51:16;;;;;;;1999.90;999.90;;;;;;;26.83;73.28;100125.38;5055556;28;20068;-56
2022/08/12 12:54:01;;;;;;;1999.90;999.90;;;;;;;26.89;78.32;100115.94;5054179;28;20086;-57
2022/08/12 12:56:48;;;;;;;1999.90;999.90;;;;;;;27.12;75.04;100122.81;5052652;28;20052;-55
2022/08/12 12:59:33;;;;;;;1999.90;999.90;;;;;;;27.55;75.02;100120.78;5050661;28;20149;-57
2022/08/12 13:02:17;;;;;;;1999.90;999.90;;;;;;;27.17;75.64;100125.09;5052861;28;20041;-55
2022/08/12 13:05:02;;;;;;;1999.90;999.90;;;;;;;26.87;74.15;100115.22;5054259;28;20095;-55
2022/08/12 13:07:47;;;;;;;1999.90;999.90;;;;;;;26.93;72.55;100128.13;5054786;28;20110;-58
2022/08/12 13:10:32;;;;;;;1999.90;999.90;;;;;;;26.53;76.23;100134.28;5051637;28;20045;-55
2022/08/12 13:13:18;;;;;;;1999.90;999.90;;;;;;;26.19;77.47;100129.09;5054328;28;20083;-54
2022/08/12 13:16:03;;;;;;;1999.90;999.90;;;;;;;26.55;78.93;100114.38;5053140;28;20082;-56
2022/08/12 13:18:49;;;;;;;1999.90;999.90;;;;;;;26.86;78.72;100114.38;5054986;28;20501;-53
2022/08/12 13:21:33;;;;;;;1999.90;999.90;;;;;;;26.75;81.16;100111.78;5052269;28;20053;-56
2022/08/12 13:24:19;;;;;;;1999.90;999.90;;;;;;;26.52;78.38;100106.59;5052269;28;20051;-57
2022/08/12 13:27:03;;;;;;;1999.90;999.90;;;;;;;26.57;77.00;100103.50;5058842;28;20506;-56
2022/08/12 13:29:47;;;;;;;1999.90;999.90;;;;;;;26.96;80.97;100109.03;5057297;28;20499;-57
2022/08/12 13:32:32;;;;;;;1999.90;999.90;;;;;;;26.59;77.99;100101.53;5051997;28;20118;-57
2022/08/12 13:35:17;;;;;;;1999.90;999.90;;;;;;;26.44;76.95;100103.69;5052458;28;20052;-57
2022/08/12 13:38:02;;;;;;;1999.90;999.90;;;;;;;26.86;81.13;100100.94;5051492;28;20087;-54
2022/08/12 13:40:46;;;;;;;1999.90;999.90;;;;;;;26.45;78.12;100091.94;5052119;28;20091;-57
2022/08/12 13:43:32;;;;;;;1999.90;999.90;;;;;;;26.29;82.03;100091.56;5050320;28;20048;-55
2022/08/12 13:46:16;;;;;;;1999.90;999.90;;;;;;;26.92;84.74;100096.88;5050927;28;20052;-56
2022/08/12 13:49:03;;;;;;;1999.90;999.90;;;;;;;26.39;78.31;100092.50;5051117;28;20044;-58
2022/08/12 13:51:52;;;;;;;1999.90;999.90;;;;;;;26.45;79.36;100108.06;5052319;28;20063;-56
2022/08/12 13:54:37;;;;;;;1999.90;999.90;;;;;;;26.55;80.28;100100.09;5052404;28;20383;-55
2022/08/12 13:57:21;;;;;;;1999.90;999.90;;;;;;;26.23;78.66;100090.28;5049671;28;20041;-56